sensor_id;sensor_type;location;lat;lon;timestamp;P1;durP1;ratioP1;P2;durP2;ratioP2
35990;SDS011;22064;42.672;23.282;2023-04-24T00:00:20;21.58;;;10.05;;
35990;SDS011;22064;42.672;23.282;2023-04-24T00:02:47;18.08;;;10.00;;
35990;SDS011;22064;42.672;23.282;2023-04-24T00:05:13;18.58;;;10.02;;
35990;SDS011;22064;42.672;23.282;2023-04-24T00:07:40;15.30;;;7.93;;
35990;SDS011;22064;42.672;23.282;2023-04-24T00:10:07;17.60;;;8.88;;
35990;SDS011;22064;42.672;23.282;2023-04-24T00:12:33;20.20;;;9.68;;
35990;SDS011;22064;42.672;23.282;2023-04-24T00:15:00;20.48;;;8.98;;
35990;SDS011;22064;42.672;23.282;2023-04-24T00:17:26;21.77;;;9.50;;
35990;SDS011;22064;42.672;23.282;2023-04-24T00:19:52;19.80;;;9.75;;
35990;SDS011;22064;42.672;23.282;2023-04-24T00:22:24;16.90;;;9.45;;
35990;SDS011;22064;42.672;23.282;2023-04-24T00:24:50;16.83;;;9.23;;
35990;SDS011;22064;42.672;23.282;2023-04-24T00:27:16;19.73;;;9.68;;
35990;SDS011;22064;42.672;23.282;2023-04-24T00:29:42;17.85;;;9.82;;
35990;SDS011;22064;42.672;23.282;2023-04-24T00:32:08;18.95;;;10.52;;
35990;SDS011;22064;42.672;23.282;2023-04-24T00:34:34;27.15;;;11.40;;
35990;SDS011;22064;42.672;23.282;2023-04-24T00:37:00;19.58;;;10.73;;
35990;SDS011;22064;42.672;23.282;2023-04-24T00:39:26;20.08;;;12.00;;
35990;SDS011;22064;42.672;23.282;2023-04-24T00:41:52;22.20;;;12.23;;
35990;SDS011;22064;42.672;23.282;2023-04-24T00:44:18;20.27;;;10.93;;
35990;SDS011;22064;42.672;23.282;2023-04-24T00:46:45;22.02;;;11.98;;
35990;SDS011;22064;42.672;23.282;2023-04-24T00:49:23;20.75;;;11.90;;
35990;SDS011;22064;42.672;23.282;2023-04-24T00:51:49;22.92;;;12.02;;
35990;SDS011;22064;42.672;23.282;2023-04-24T00:54:16;25.00;;;12.30;;
35990;SDS011;22064;42.672;23.282;2023-04-24T00:56:44;21.52;;;11.80;;
35990;SDS011;22064;42.672;23.282;2023-04-24T00:59:14;22.23;;;11.88;;
35990;SDS011;22064;42.672;23.282;2023-04-24T01:01:42;23.27;;;11.65;;
35990;SDS011;22064;42.672;23.282;2023-04-24T01:04:09;23.15;;;12.25;;
35990;SDS011;22064;42.672;23.282;2023-04-24T01:06:38;22.55;;;11.77;;
35990;SDS011;22064;42.672;23.282;2023-04-24T01:09:05;22.73;;;11.75;;
35990;SDS011;22064;42.672;23.282;2023-04-24T01:11:33;23.40;;;12.00;;
35990;SDS011;22064;42.672;23.282;2023-04-24T01:14:01;22.08;;;11.95;;
35990;SDS011;22064;42.672;23.282;2023-04-24T01:16:27;20.73;;;11.80;;
35990;SDS011;22064;42.672;23.282;2023-04-24T01:18:53;23.25;;;12.13;;
35990;SDS011;22064;42.672;23.282;2023-04-24T01:21:19;24.88;;;12.02;;
35990;SDS011;22064;42.672;23.282;2023-04-24T01:23:46;24.13;;;12.77;;
35990;SDS011;22064;42.672;23.282;2023-04-24T01:26:13;25.33;;;13.35;;
35990;SDS011;22064;42.672;23.282;2023-04-24T01:28:42;23.23;;;12.20;;
35990;SDS011;22064;42.672;23.282;2023-04-24T01:31:08;22.25;;;12.60;;
35990;SDS011;22064;42.672;23.282;2023-04-24T01:33:34;20.38;;;11.43;;
35990;SDS011;22064;42.672;23.282;2023-04-24T01:36:00;19.00;;;9.05;;
35990;SDS011;22064;42.672;23.282;2023-04-24T01:38:27;20.38;;;11.15;;
35990;SDS011;22064;42.672;23.282;2023-04-24T01:40:53;18.20;;;9.70;;
35990;SDS011;22064;42.672;23.282;2023-04-24T01:43:19;20.10;;;9.50;;
35990;SDS011;22064;42.672;23.282;2023-04-24T01:45:45;18.42;;;9.45;;
35990;SDS011;22064;42.672;23.282;2023-04-24T01:48:12;14.35;;;7.93;;
35990;SDS011;22064;42.672;23.282;2023-04-24T01:50:38;15.30;;;8.15;;
35990;SDS011;22064;42.672;23.282;2023-04-24T01:53:04;17.75;;;9.32;;
35990;SDS011;22064;42.672;23.282;2023-04-24T01:55:30;14.10;;;7.50;;
35990;SDS011;22064;42.672;23.282;2023-04-24T01:57:57;15.35;;;7.43;;
35990;SDS011;22064;42.672;23.282;2023-04-24T02:00:25;13.40;;;7.20;;
35990;SDS011;22064;42.672;23.282;2023-04-24T02:02:52;16.50;;;7.93;;
35990;SDS011;22064;42.672;23.282;2023-04-24T02:05:18;16.00;;;7.28;;
35990;SDS011;22064;42.672;23.282;2023-04-24T02:07:44;15.50;;;7.82;;
35990;SDS011;22064;42.672;23.282;2023-04-24T02:10:10;19.10;;;7.97;;
35990;SDS011;22064;42.672;23.282;2023-04-24T02:12:41;17.33;;;9.48;;
35990;SDS011;22064;42.672;23.282;2023-04-24T02:15:07;15.15;;;8.50;;
35990;SDS011;22064;42.672;23.282;2023-04-24T02:17:36;17.00;;;8.15;;
35990;SDS011;22064;42.672;23.282;2023-04-24T02:20:03;15.57;;;8.27;;
35990;SDS011;22064;42.672;23.282;2023-04-24T02:22:30;20.98;;;9.82;;
35990;SDS011;22064;42.672;23.282;2023-04-24T02:25:00;19.55;;;9.98;;
35990;SDS011;22064;42.672;23.282;2023-04-24T02:27:26;17.15;;;8.65;;
35990;SDS011;22064;42.672;23.282;2023-04-24T02:29:52;16.55;;;9.38;;
35990;SDS011;22064;42.672;23.282;2023-04-24T02:32:18;21.58;;;10.27;;
35990;SDS011;22064;42.672;23.282;2023-04-24T02:34:44;17.00;;;9.70;;
35990;SDS011;22064;42.672;23.282;2023-04-24T02:37:11;22.60;;;10.73;;
35990;SDS011;22064;42.672;23.282;2023-04-24T02:39:37;20.50;;;10.02;;
35990;SDS011;22064;42.672;23.282;2023-04-24T02:42:03;21.65;;;10.50;;
35990;SDS011;22064;42.672;23.282;2023-04-24T02:44:30;20.67;;;10.65;;
35990;SDS011;22064;42.672;23.282;2023-04-24T02:46:57;22.25;;;11.38;;
35990;SDS011;22064;42.672;23.282;2023-04-24T02:49:22;23.48;;;10.88;;
35990;SDS011;22064;42.672;23.282;2023-04-24T02:51:48;20.00;;;10.75;;
35990;SDS011;22064;42.672;23.282;2023-04-24T02:54:14;22.08;;;11.40;;
35990;SDS011;22064;42.672;23.282;2023-04-24T02:56:40;21.90;;;11.10;;
35990;SDS011;22064;42.672;23.282;2023-04-24T02:59:07;24.83;;;11.27;;
35990;SDS011;22064;42.672;23.282;2023-04-24T03:01:36;24.58;;;11.10;;
35990;SDS011;22064;42.672;23.282;2023-04-24T03:04:02;25.55;;;12.07;;
35990;SDS011;22064;42.672;23.282;2023-04-24T03:06:29;24.42;;;11.68;;
35990;SDS011;22064;42.672;23.282;2023-04-24T03:08:56;25.08;;;11.98;;
35990;SDS011;22064;42.672;23.282;2023-04-24T03:11:22;22.38;;;11.30;;
35990;SDS011;22064;42.672;23.282;2023-04-24T03:13:48;20.90;;;12.02;;
35990;SDS011;22064;42.672;23.282;2023-04-24T03:16:14;23.67;;;13.20;;
35990;SDS011;22064;42.672;23.282;2023-04-24T03:18:40;24.17;;;12.95;;
35990;SDS011;22064;42.672;23.282;2023-04-24T03:21:07;24.48;;;12.10;;
35990;SDS011;22064;42.672;23.282;2023-04-24T03:23:34;23.52;;;13.27;;
35990;SDS011;22064;42.672;23.282;2023-04-24T03:25:59;25.42;;;12.82;;
35990;SDS011;22064;42.672;23.282;2023-04-24T03:28:26;24.25;;;12.68;;
35990;SDS011;22064;42.672;23.282;2023-04-24T03:31:02;23.00;;;12.43;;
35990;SDS011;22064;42.672;23.282;2023-04-24T03:33:32;24.23;;;12.43;;
35990;SDS011;22064;42.672;23.282;2023-04-24T03:36:00;23.08;;;11.13;;
35990;SDS011;22064;42.672;23.282;2023-04-24T03:38:32;21.95;;;12.10;;
35990;SDS011;22064;42.672;23.282;2023-04-24T03:41:04;23.80;;;12.63;;
35990;SDS011;22064;42.672;23.282;2023-04-24T03:43:45;23.25;;;11.50;;
35990;SDS011;22064;42.672;23.282;2023-04-24T03:46:10;21.30;;;11.00;;
35990;SDS011;22064;42.672;23.282;2023-04-24T03:48:44;23.45;;;12.13;;
35990;SDS011;22064;42.672;23.282;2023-04-24T03:51:10;23.40;;;12.60;;
35990;SDS011;22064;42.672;23.282;2023-04-24T03:53:38;23.73;;;12.32;;
35990;SDS011;22064;42.672;23.282;2023-04-24T03:56:05;23.10;;;11.73;;
35990;SDS011;22064;42.672;23.282;2023-04-24T03:58:32;20.55;;;11.00;;
35990;SDS011;22064;42.672;23.282;2023-04-24T04:00:59;20.55;;;10.80;;
35990;SDS011;22064;42.672;23.282;2023-04-24T04:03:53;19.63;;;11.00;;
35990;SDS011;22064;42.672;23.282;2023-04-24T04:06:22;20.27;;;10.73;;
35990;SDS011;22064;42.672;23.282;2023-04-24T04:08:50;22.52;;;10.65;;
35990;SDS011;22064;42.672;23.282;2023-04-24T04:11:16;19.13;;;9.23;;
35990;SDS011;22064;42.672;23.282;2023-04-24T04:13:44;23.52;;;10.60;;
35990;SDS011;22064;42.672;23.282;2023-04-24T04:16:11;20.52;;;11.13;;
35990;SDS011;22064;42.672;23.282;2023-04-24T04:18:38;20.25;;;10.35;;
35990;SDS011;22064;42.672;23.282;2023-04-24T04:21:06;24.55;;;11.45;;
35990;SDS011;22064;42.672;23.282;2023-04-24T04:23:33;18.90;;;10.63;;
35990;SDS011;22064;42.672;23.282;2023-04-24T04:26:11;23.98;;;9.68;;
35990;SDS011;22064;42.672;23.282;2023-04-24T04:29:04;16.35;;;9.20;;
35990;SDS011;22064;42.672;23.282;2023-04-24T04:34:04;21.02;;;10.13;;
35990;SDS011;22064;42.672;23.282;2023-04-24T04:36:33;22.13;;;10.77;;
35990;SDS011;22064;42.672;23.282;2023-04-24T04:39:09;25.20;;;11.25;;
35990;SDS011;22064;42.672;23.282;2023-04-24T04:41:51;24.02;;;10.85;;
35990;SDS011;22064;42.672;23.282;2023-04-24T04:44:20;22.63;;;11.85;;
35990;SDS011;22064;42.672;23.282;2023-04-24T04:46:46;26.95;;;12.82;;
35990;SDS011;22064;42.672;23.282;2023-04-24T04:49:27;24.17;;;12.25;;
35990;SDS011;22064;42.672;23.282;2023-04-24T04:51:54;28.80;;;13.15;;
35990;SDS011;22064;42.672;23.282;2023-04-24T04:54:21;25.02;;;12.23;;
35990;SDS011;22064;42.672;23.282;2023-04-24T04:56:47;30.40;;;13.23;;
35990;SDS011;22064;42.672;23.282;2023-04-24T04:59:16;29.83;;;14.13;;
35990;SDS011;22064;42.672;23.282;2023-04-24T05:01:41;26.38;;;12.30;;
35990;SDS011;22064;42.672;23.282;2023-04-24T05:04:09;23.27;;;12.27;;
35990;SDS011;22064;42.672;23.282;2023-04-24T05:06:36;23.50;;;10.73;;
35990;SDS011;22064;42.672;23.282;2023-04-24T05:09:04;23.75;;;10.98;;
35990;SDS011;22064;42.672;23.282;2023-04-24T05:11:40;23.55;;;10.18;;
35990;SDS011;22064;42.672;23.282;2023-04-24T05:14:06;18.08;;;9.35;;
35990;SDS011;22064;42.672;23.282;2023-04-24T05:16:36;19.17;;;8.10;;
35990;SDS011;22064;42.672;23.282;2023-04-24T05:19:04;13.05;;;7.65;;
35990;SDS011;22064;42.672;23.282;2023-04-24T05:21:35;18.48;;;7.32;;
35990;SDS011;22064;42.672;23.282;2023-04-24T05:24:01;14.70;;;7.45;;
35990;SDS011;22064;42.672;23.282;2023-04-24T05:26:53;16.08;;;7.15;;
35990;SDS011;22064;42.672;23.282;2023-04-24T05:29:24;13.18;;;6.60;;
35990;SDS011;22064;42.672;23.282;2023-04-24T05:31:52;16.48;;;7.63;;
35990;SDS011;22064;42.672;23.282;2023-04-24T05:34:19;18.58;;;7.47;;
35990;SDS011;22064;42.672;23.282;2023-04-24T05:36:49;17.63;;;8.02;;
35990;SDS011;22064;42.672;23.282;2023-04-24T05:39:15;11.75;;;7.00;;
35990;SDS011;22064;42.672;23.282;2023-04-24T05:41:42;16.60;;;7.70;;
35990;SDS011;22064;42.672;23.282;2023-04-24T05:44:08;16.35;;;7.60;;
35990;SDS011;22064;42.672;23.282;2023-04-24T05:46:34;13.40;;;6.97;;
35990;SDS011;22064;42.672;23.282;2023-04-24T05:48:59;15.20;;;6.90;;
35990;SDS011;22064;42.672;23.282;2023-04-24T05:51:25;18.98;;;7.55;;
35990;SDS011;22064;42.672;23.282;2023-04-24T05:53:51;15.50;;;7.45;;
35990;SDS011;22064;42.672;23.282;2023-04-24T05:56:18;17.20;;;8.25;;
35990;SDS011;22064;42.672;23.282;2023-04-24T05:58:45;17.25;;;7.82;;
35990;SDS011;22064;42.672;23.282;2023-04-24T06:01:11;22.00;;;8.25;;
35990;SDS011;22064;42.672;23.282;2023-04-24T06:03:40;20.45;;;9.27;;
35990;SDS011;22064;42.672;23.282;2023-04-24T06:06:08;17.77;;;8.35;;
35990;SDS011;22064;42.672;23.282;2023-04-24T06:08:35;15.20;;;7.75;;
35990;SDS011;22064;42.672;23.282;2023-04-24T06:11:01;21.15;;;10.50;;
35990;SDS011;22064;42.672;23.282;2023-04-24T06:13:27;21.50;;;9.63;;
35990;SDS011;22064;42.672;23.282;2023-04-24T06:16:13;17.20;;;8.40;;
35990;SDS011;22064;42.672;23.282;2023-04-24T06:18:43;21.05;;;8.45;;
35990;SDS011;22064;42.672;23.282;2023-04-24T06:21:10;13.85;;;8.30;;
35990;SDS011;22064;42.672;23.282;2023-04-24T06:23:36;20.83;;;9.23;;
35990;SDS011;22064;42.672;23.282;2023-04-24T06:26:02;19.17;;;9.93;;
35990;SDS011;22064;42.672;23.282;2023-04-24T06:28:28;18.17;;;9.30;;
35990;SDS011;22064;42.672;23.282;2023-04-24T06:30:54;21.15;;;9.43;;
35990;SDS011;22064;42.672;23.282;2023-04-24T06:33:21;19.38;;;9.20;;
35990;SDS011;22064;42.672;23.282;2023-04-24T06:35:47;22.75;;;9.73;;
35990;SDS011;22064;42.672;23.282;2023-04-24T06:38:12;18.52;;;9.55;;
35990;SDS011;22064;42.672;23.282;2023-04-24T06:40:39;20.70;;;9.70;;
35990;SDS011;22064;42.672;23.282;2023-04-24T06:43:04;22.65;;;9.48;;
35990;SDS011;22064;42.672;23.282;2023-04-24T06:45:31;19.50;;;9.68;;
35990;SDS011;22064;42.672;23.282;2023-04-24T06:47:57;19.38;;;9.52;;
35990;SDS011;22064;42.672;23.282;2023-04-24T06:50:23;24.85;;;9.60;;
35990;SDS011;22064;42.672;23.282;2023-04-24T06:52:49;24.20;;;10.07;;
35990;SDS011;22064;42.672;23.282;2023-04-24T06:55:15;20.55;;;10.38;;
35990;SDS011;22064;42.672;23.282;2023-04-24T06:57:42;18.35;;;9.38;;
35990;SDS011;22064;42.672;23.282;2023-04-24T07:00:09;18.58;;;9.90;;
35990;SDS011;22064;42.672;23.282;2023-04-24T07:02:36;22.52;;;10.13;;
35990;SDS011;22064;42.672;23.282;2023-04-24T07:05:03;17.55;;;9.15;;
35990;SDS011;22064;42.672;23.282;2023-04-24T07:07:30;20.13;;;9.98;;
35990;SDS011;22064;42.672;23.282;2023-04-24T07:09:57;19.58;;;9.82;;
35990;SDS011;22064;42.672;23.282;2023-04-24T07:12:23;23.35;;;9.68;;
35990;SDS011;22064;42.672;23.282;2023-04-24T07:14:49;17.85;;;9.60;;
35990;SDS011;22064;42.672;23.282;2023-04-24T07:17:16;19.85;;;9.30;;
35990;SDS011;22064;42.672;23.282;2023-04-24T07:19:42;23.55;;;10.48;;
35990;SDS011;22064;42.672;23.282;2023-04-24T07:22:08;26.38;;;13.60;;
35990;SDS011;22064;42.672;23.282;2023-04-24T07:24:33;23.45;;;13.65;;
35990;SDS011;22064;42.672;23.282;2023-04-24T07:26:59;17.67;;;9.13;;
35990;SDS011;22064;42.672;23.282;2023-04-24T07:29:28;21.37;;;9.83;;
35990;SDS011;22064;42.672;23.282;2023-04-24T07:31:54;17.77;;;9.13;;
35990;SDS011;22064;42.672;23.282;2023-04-24T07:34:21;22.13;;;9.27;;
35990;SDS011;22064;42.672;23.282;2023-04-24T07:36:47;19.20;;;9.30;;
35990;SDS011;22064;42.672;23.282;2023-04-24T07:39:13;17.15;;;8.57;;
35990;SDS011;22064;42.672;23.282;2023-04-24T07:41:39;15.80;;;7.43;;
35990;SDS011;22064;42.672;23.282;2023-04-24T07:44:05;15.70;;;7.25;;
35990;SDS011;22064;42.672;23.282;2023-04-24T07:46:31;14.15;;;7.72;;
35990;SDS011;22064;42.672;23.282;2023-04-24T07:48:58;16.33;;;8.60;;
35990;SDS011;22064;42.672;23.282;2023-04-24T07:51:26;18.63;;;8.57;;
35990;SDS011;22064;42.672;23.282;2023-04-24T07:53:56;14.02;;;8.40;;
35990;SDS011;22064;42.672;23.282;2023-04-24T07:56:22;13.80;;;8.05;;
35990;SDS011;22064;42.672;23.282;2023-04-24T07:58:48;13.57;;;7.97;;
35990;SDS011;22064;42.672;23.282;2023-04-24T08:01:14;12.40;;;7.70;;
35990;SDS011;22064;42.672;23.282;2023-04-24T08:03:39;15.60;;;8.48;;
35990;SDS011;22064;42.672;23.282;2023-04-24T08:06:05;16.42;;;8.07;;
35990;SDS011;22064;42.672;23.282;2023-04-24T08:08:31;15.73;;;7.70;;
35990;SDS011;22064;42.672;23.282;2023-04-24T08:10:57;14.77;;;7.38;;
35990;SDS011;22064;42.672;23.282;2023-04-24T08:13:23;14.82;;;7.70;;
35990;SDS011;22064;42.672;23.282;2023-04-24T08:15:50;14.30;;;7.63;;
35990;SDS011;22064;42.672;23.282;2023-04-24T08:18:15;13.93;;;7.70;;
35990;SDS011;22064;42.672;23.282;2023-04-24T08:20:41;17.00;;;7.85;;
35990;SDS011;22064;42.672;23.282;2023-04-24T08:23:08;12.93;;;7.88;;
35990;SDS011;22064;42.672;23.282;2023-04-24T08:25:33;20.33;;;8.05;;
35990;SDS011;22064;42.672;23.282;2023-04-24T08:28:01;13.30;;;7.53;;
35990;SDS011;22064;42.672;23.282;2023-04-24T08:30:29;14.63;;;7.60;;
35990;SDS011;22064;42.672;23.282;2023-04-24T08:32:55;17.05;;;8.00;;
35990;SDS011;22064;42.672;23.282;2023-04-24T08:35:21;21.52;;;10.88;;
35990;SDS011;22064;42.672;23.282;2023-04-24T08:37:48;13.57;;;7.90;;
35990;SDS011;22064;42.672;23.282;2023-04-24T08:40:15;13.70;;;7.63;;
35990;SDS011;22064;42.672;23.282;2023-04-24T08:42:42;20.63;;;8.85;;
35990;SDS011;22064;42.672;23.282;2023-04-24T08:45:12;18.45;;;9.50;;
35990;SDS011;22064;42.672;23.282;2023-04-24T08:47:39;17.20;;;9.32;;
35990;SDS011;22064;42.672;23.282;2023-04-24T08:50:06;16.13;;;9.23;;
35990;SDS011;22064;42.672;23.282;2023-04-24T08:52:33;17.48;;;8.55;;
35990;SDS011;22064;42.672;23.282;2023-04-24T08:55:00;20.02;;;8.50;;
35990;SDS011;22064;42.672;23.282;2023-04-24T08:57:26;18.33;;;7.97;;
35990;SDS011;22064;42.672;23.282;2023-04-24T08:59:53;14.45;;;8.35;;
35990;SDS011;22064;42.672;23.282;2023-04-24T09:02:20;13.70;;;7.70;;
35990;SDS011;22064;42.672;23.282;2023-04-24T09:04:47;15.75;;;7.95;;
35990;SDS011;22064;42.672;23.282;2023-04-24T09:07:14;13.88;;;7.88;;
35990;SDS011;22064;42.672;23.282;2023-04-24T09:09:43;15.80;;;8.55;;
35990;SDS011;22064;42.672;23.282;2023-04-24T09:12:10;12.55;;;7.20;;
35990;SDS011;22064;42.672;23.282;2023-04-24T09:14:37;15.52;;;8.05;;
35990;SDS011;22064;42.672;23.282;2023-04-24T09:17:10;15.32;;;7.50;;
35990;SDS011;22064;42.672;23.282;2023-04-24T09:19:36;16.60;;;7.80;;
35990;SDS011;22064;42.672;23.282;2023-04-24T09:22:06;14.88;;;7.93;;
35990;SDS011;22064;42.672;23.282;2023-04-24T09:24:33;14.27;;;7.85;;
35990;SDS011;22064;42.672;23.282;2023-04-24T09:27:00;13.57;;;7.03;;
35990;SDS011;22064;42.672;23.282;2023-04-24T09:29:27;13.10;;;6.25;;
35990;SDS011;22064;42.672;23.282;2023-04-24T09:31:53;14.90;;;7.50;;
35990;SDS011;22064;42.672;23.282;2023-04-24T09:34:23;18.67;;;7.70;;
35990;SDS011;22064;42.672;23.282;2023-04-24T09:36:51;13.68;;;6.90;;
35990;SDS011;22064;42.672;23.282;2023-04-24T09:39:18;13.65;;;7.30;;
35990;SDS011;22064;42.672;23.282;2023-04-24T09:41:53;15.65;;;7.10;;
35990;SDS011;22064;42.672;23.282;2023-04-24T09:44:24;17.45;;;7.43;;
35990;SDS011;22064;42.672;23.282;2023-04-24T09:49:21;15.25;;;6.90;;
35990;SDS011;22064;42.672;23.282;2023-04-24T09:51:49;13.70;;;6.28;;
35990;SDS011;22064;42.672;23.282;2023-04-24T09:54:15;12.15;;;6.60;;
35990;SDS011;22064;42.672;23.282;2023-04-24T09:56:47;14.30;;;6.28;;
35990;SDS011;22064;42.672;23.282;2023-04-24T09:59:15;13.70;;;6.68;;
35990;SDS011;22064;42.672;23.282;2023-04-24T10:01:42;10.50;;;6.65;;
35990;SDS011;22064;42.672;23.282;2023-04-24T10:04:20;13.60;;;6.25;;
35990;SDS011;22064;42.672;23.282;2023-04-24T10:06:48;19.02;;;7.25;;
35990;SDS011;22064;42.672;23.282;2023-04-24T10:09:15;16.67;;;6.18;;
35990;SDS011;22064;42.672;23.282;2023-04-24T10:11:42;16.80;;;6.18;;
35990;SDS011;22064;42.672;23.282;2023-04-24T10:14:13;11.63;;;6.20;;
35990;SDS011;22064;42.672;23.282;2023-04-24T10:16:44;16.30;;;6.53;;
35990;SDS011;22064;42.672;23.282;2023-04-24T10:19:12;13.82;;;6.85;;
35990;SDS011;22064;42.672;23.282;2023-04-24T10:21:40;15.88;;;6.22;;
35990;SDS011;22064;42.672;23.282;2023-04-24T10:24:08;10.37;;;5.50;;
35990;SDS011;22064;42.672;23.282;2023-04-24T10:26:35;13.15;;;5.72;;
35990;SDS011;22064;42.672;23.282;2023-04-24T10:29:02;9.23;;;5.15;;
35990;SDS011;22064;42.672;23.282;2023-04-24T10:31:31;12.43;;;5.70;;
35990;SDS011;22064;42.672;23.282;2023-04-24T10:33:58;11.02;;;5.28;;
35990;SDS011;22064;42.672;23.282;2023-04-24T10:36:25;9.45;;;4.47;;
35990;SDS011;22064;42.672;23.282;2023-04-24T10:38:54;5.80;;;3.80;;
35990;SDS011;22064;42.672;23.282;2023-04-24T10:41:22;10.15;;;4.47;;
35990;SDS011;22064;42.672;23.282;2023-04-24T10:46:38;9.80;;;4.40;;
35990;SDS011;22064;42.672;23.282;2023-04-24T10:49:05;7.85;;;4.50;;
35990;SDS011;22064;42.672;23.282;2023-04-24T10:51:47;9.07;;;4.88;;
35990;SDS011;22064;42.672;23.282;2023-04-24T10:56:52;8.55;;;4.20;;
35990;SDS011;22064;42.672;23.282;2023-04-24T10:59:26;6.45;;;4.18;;
35990;SDS011;22064;42.672;23.282;2023-04-24T11:01:54;8.18;;;4.00;;
35990;SDS011;22064;42.672;23.282;2023-04-24T11:06:58;6.57;;;4.40;;
35990;SDS011;22064;42.672;23.282;2023-04-24T11:09:26;7.50;;;4.30;;
35990;SDS011;22064;42.672;23.282;2023-04-24T11:12:02;12.27;;;4.47;;
35990;SDS011;22064;42.672;23.282;2023-04-24T11:15:00;7.30;;;4.50;;
35990;SDS011;22064;42.672;23.282;2023-04-24T11:17:54;8.00;;;4.13;;
35990;SDS011;22064;42.672;23.282;2023-04-24T11:20:16;9.23;;;5.10;;
35990;SDS011;22064;42.672;23.282;2023-04-24T11:22:43;14.07;;;5.90;;
35990;SDS011;22064;42.672;23.282;2023-04-24T11:25:09;7.85;;;4.90;;
35990;SDS011;22064;42.672;23.282;2023-04-24T11:27:41;13.93;;;9.40;;
35990;SDS011;22064;42.672;23.282;2023-04-24T11:30:09;7.90;;;5.63;;
35990;SDS011;22064;42.672;23.282;2023-04-24T11:32:37;9.75;;;6.07;;
35990;SDS011;22064;42.672;23.282;2023-04-24T11:37:54;8.52;;;5.65;;
35990;SDS011;22064;42.672;23.282;2023-04-24T11:40:20;11.60;;;6.43;;
35990;SDS011;22064;42.672;23.282;2023-04-24T11:42:51;10.40;;;6.55;;
35990;SDS011;22064;42.672;23.282;2023-04-24T11:45:21;10.60;;;6.82;;
35990;SDS011;22064;42.672;23.282;2023-04-24T11:47:52;13.35;;;6.65;;
35990;SDS011;22064;42.672;23.282;2023-04-24T11:50:21;10.23;;;6.57;;
35990;SDS011;22064;42.672;23.282;2023-04-24T11:52:49;10.35;;;6.60;;
35990;SDS011;22064;42.672;23.282;2023-04-24T11:57:51;10.98;;;6.50;;
35990;SDS011;22064;42.672;23.282;2023-04-24T12:00:23;8.25;;;5.78;;
35990;SDS011;22064;42.672;23.282;2023-04-24T12:02:51;8.23;;;6.00;;
35990;SDS011;22064;42.672;23.282;2023-04-24T12:05:28;12.45;;;7.30;;
35990;SDS011;22064;42.672;23.282;2023-04-24T12:07:56;10.43;;;6.03;;
35990;SDS011;22064;42.672;23.282;2023-04-24T12:10:26;6.50;;;5.45;;
35990;SDS011;22064;42.672;23.282;2023-04-24T12:12:55;9.98;;;5.45;;
35990;SDS011;22064;42.672;23.282;2023-04-24T12:15:22;8.00;;;5.05;;
35990;SDS011;22064;42.672;23.282;2023-04-24T12:17:50;9.13;;;5.45;;
35990;SDS011;22064;42.672;23.282;2023-04-24T12:20:17;8.93;;;4.83;;
35990;SDS011;22064;42.672;23.282;2023-04-24T12:25:17;8.98;;;5.13;;
35990;SDS011;22064;42.672;23.282;2023-04-24T12:27:45;7.25;;;5.18;;
35990;SDS011;22064;42.672;23.282;2023-04-24T12:30:15;7.05;;;4.53;;
35990;SDS011;22064;42.672;23.282;2023-04-24T12:32:46;7.88;;;5.10;;
35990;SDS011;22064;42.672;23.282;2023-04-24T12:35:13;6.97;;;5.07;;
35990;SDS011;22064;42.672;23.282;2023-04-24T12:37:45;8.77;;;4.82;;
35990;SDS011;22064;42.672;23.282;2023-04-24T12:40:12;8.32;;;5.00;;
35990;SDS011;22064;42.672;23.282;2023-04-24T12:42:45;5.93;;;4.95;;
35990;SDS011;22064;42.672;23.282;2023-04-24T12:45:14;6.18;;;4.50;;
35990;SDS011;22064;42.672;23.282;2023-04-24T12:47:41;6.15;;;4.35;;
35990;SDS011;22064;42.672;23.282;2023-04-24T12:50:12;6.47;;;4.50;;
35990;SDS011;22064;42.672;23.282;2023-04-24T12:52:39;7.68;;;4.93;;
35990;SDS011;22064;42.672;23.282;2023-04-24T12:55:06;8.38;;;4.80;;
35990;SDS011;22064;42.672;23.282;2023-04-24T12:57:36;10.00;;;5.30;;
35990;SDS011;22064;42.672;23.282;2023-04-24T13:00:03;8.70;;;4.88;;
35990;SDS011;22064;42.672;23.282;2023-04-24T13:02:30;9.02;;;5.03;;
35990;SDS011;22064;42.672;23.282;2023-04-24T13:04:56;7.55;;;5.50;;
35990;SDS011;22064;42.672;23.282;2023-04-24T13:07:23;6.53;;;4.60;;
35990;SDS011;22064;42.672;23.282;2023-04-24T13:09:50;6.72;;;4.18;;
35990;SDS011;22064;42.672;23.282;2023-04-24T13:12:17;6.82;;;4.50;;
35990;SDS011;22064;42.672;23.282;2023-04-24T13:14:43;6.57;;;4.60;;
35990;SDS011;22064;42.672;23.282;2023-04-24T13:17:09;8.15;;;4.40;;
35990;SDS011;22064;42.672;23.282;2023-04-24T13:19:37;7.50;;;4.50;;
35990;SDS011;22064;42.672;23.282;2023-04-24T13:22:04;6.53;;;4.18;;
35990;SDS011;22064;42.672;23.282;2023-04-24T13:24:31;6.28;;;4.32;;
35990;SDS011;22064;42.672;23.282;2023-04-24T13:26:57;5.90;;;4.38;;
35990;SDS011;22064;42.672;23.282;2023-04-24T13:29:24;9.32;;;4.30;;
35990;SDS011;22064;42.672;23.282;2023-04-24T13:31:50;6.18;;;4.50;;
35990;SDS011;22064;42.672;23.282;2023-04-24T13:34:17;6.28;;;4.65;;
35990;SDS011;22064;42.672;23.282;2023-04-24T13:36:43;5.70;;;4.18;;
35990;SDS011;22064;42.672;23.282;2023-04-24T13:39:09;6.60;;;4.20;;
35990;SDS011;22064;42.672;23.282;2023-04-24T13:41:36;8.02;;;4.30;;
35990;SDS011;22064;42.672;23.282;2023-04-24T13:44:02;5.80;;;4.15;;
35990;SDS011;22064;42.672;23.282;2023-04-24T13:46:28;9.40;;;4.40;;
35990;SDS011;22064;42.672;23.282;2023-04-24T13:48:54;5.97;;;4.00;;
35990;SDS011;22064;42.672;23.282;2023-04-24T13:51:20;8.40;;;4.32;;
35990;SDS011;22064;42.672;23.282;2023-04-24T13:53:46;6.40;;;4.28;;
35990;SDS011;22064;42.672;23.282;2023-04-24T13:56:12;9.25;;;4.40;;
35990;SDS011;22064;42.672;23.282;2023-04-24T13:58:39;7.30;;;4.38;;
35990;SDS011;22064;42.672;23.282;2023-04-24T14:01:05;7.80;;;3.83;;
35990;SDS011;22064;42.672;23.282;2023-04-24T14:03:32;5.78;;;3.70;;
35990;SDS011;22064;42.672;23.282;2023-04-24T14:05:59;6.80;;;3.90;;
35990;SDS011;22064;42.672;23.282;2023-04-24T14:08:25;6.10;;;3.65;;
35990;SDS011;22064;42.672;23.282;2023-04-24T14:10:51;6.65;;;3.92;;
35990;SDS011;22064;42.672;23.282;2023-04-24T14:13:17;5.60;;;3.80;;
35990;SDS011;22064;42.672;23.282;2023-04-24T14:15:42;7.05;;;3.90;;
35990;SDS011;22064;42.672;23.282;2023-04-24T14:18:08;6.18;;;4.07;;
35990;SDS011;22064;42.672;23.282;2023-04-24T14:20:35;5.82;;;3.75;;
35990;SDS011;22064;42.672;23.282;2023-04-24T14:23:00;4.95;;;3.50;;
35990;SDS011;22064;42.672;23.282;2023-04-24T14:25:26;5.38;;;4.65;;
35990;SDS011;22064;42.672;23.282;2023-04-24T14:27:52;6.45;;;3.70;;
35990;SDS011;22064;42.672;23.282;2023-04-24T14:30:18;8.82;;;4.07;;
35990;SDS011;22064;42.672;23.282;2023-04-24T14:32:45;10.68;;;5.60;;
35990;SDS011;22064;42.672;23.282;2023-04-24T14:35:11;8.35;;;4.20;;
35990;SDS011;22064;42.672;23.282;2023-04-24T14:37:37;6.20;;;4.20;;
35990;SDS011;22064;42.672;23.282;2023-04-24T14:40:03;7.18;;;4.40;;
35990;SDS011;22064;42.672;23.282;2023-04-24T14:42:31;12.00;;;4.30;;
35990;SDS011;22064;42.672;23.282;2023-04-24T14:44:57;6.05;;;4.25;;